Flight Track Log - Related Links

Times and Time Zones

All times are in EDT time to prevent confusion due to time zone crossing. See the JBU1034 flight status page for this flight to view local times or setup timezone preferences in your user account.

Time Position Orientation Groundspeed Altitude Reporting Facility
EDT Latitude Longitude Course Direction KTS MPH feet Rate Location/Type
Wed 04:58:50 PM 18.4500 -65.9667 317° Northwest 180 207 1,500  Level San Juan Center
Wed 04:59:50 PM 18.5167 -66.0000 335° Northwest 230 265 3,200 2,685 Climbing San Juan Center
Wed 05:01:00 PM 18.6855 -66.2435 322° Northwest  Level FlightAware Approximate
Wed 05:01:51 PM 18.6333 -66.0500 338° Northwest 250 288 9,600  Level San Juan Center
Wed 05:03:52 PM 18.7333 -66.1833 322° Northwest 270 311 14,800 2,091 Climbing San Juan Center
Wed 05:05:52 PM 18.8167 -66.3167 317° Northwest 330 380 18,000 1,293 Climbing San Juan Center
Wed 05:06:53 PM 18.8833 -66.4167 305° West 410 472 18,700 1,438 Climbing San Juan Center
Wed 05:07:53 PM 18.9667 -66.5167 311° West 450 518 20,900 1,700 Climbing San Juan Center
Wed 05:08:53 PM 19.0667 -66.6167 317° Northwest 460 529 22,100 1,289 Climbing San Juan Center
Wed 05:09:54 PM 19.1500 -66.7167 311° West 460 529 23,500 1,041 Climbing San Juan Center
Wed 05:10:54 PM 19.2333 -66.8333 307° West 470 541 24,200 750 Climbing San Juan Center
Wed 05:11:54 PM 19.3167 -66.9333 311° West 480 552 25,000 694 Climbing San Juan Center
Wed 05:12:55 PM 19.4000 -67.0500 307° West 480 552 25,600 645 Climbing San Juan Center
Wed 05:13:55 PM 19.4833 -67.1667 307° West 500 575 26,300 750 Climbing San Juan Center
Wed 05:14:55 PM 19.5667 -67.2667 311° West 490 564 27,100 994 Climbing San Juan Center
Wed 05:16:56 PM 19.7500 -67.5000 305° West 480 552 29,300 1,127 Climbing San Juan Center
Wed 05:17:56 PM 19.8333 -67.6167 307° West 480 552 30,500 950 Climbing San Juan Center
Wed 05:18:56 PM 19.9167 -67.7167 312° West 470 541 31,200 850 Climbing San Juan Center
Wed 05:19:56 PM 20.0000 -67.8333 307° West 470 541 32,200 1,091 Climbing San Juan Center
Wed 05:20:57 PM 20.0833 -67.9333 312° West 460 529 33,400 1,000 Climbing San Juan Center
Wed 05:22:20 PM 20.2072 -68.0817 309° West 469 540 34,600 910 Climbing Miami Center
Wed 05:23:22 PM 20.2961 -68.2142 306° West 465 535 35,600 677 Climbing Miami Center
Wed 05:24:24 PM 20.3569 -68.3339 298° West 465 535 36,000 194 Climbing Miami Center
Wed 05:25:26 PM 20.4192 -68.4519 299° West 464 534 36,000  Level Miami Center
Wed 05:26:28 PM 20.4792 -68.5719 298° West 462 532 36,000  Level Miami Center
Wed 05:27:30 PM 20.5431 -68.6908 300° West 462 532 36,000  Level Miami Center
Wed 05:28:33 PM 20.6069 -68.8072 300° West 460 529 36,000  Level Miami Center
Wed 05:30:37 PM 20.7456 -69.0653 300° West 458 527 36,000  Level Miami Center
Wed 05:32:41 PM 20.8675 -69.2964 299° West 452 520 36,000  Level Miami Center
Wed 05:33:44 PM 20.9300 -69.4119 300° West 451 519 36,000  Level Miami Center
Wed 05:36:50 PM 21.1242 -69.7825 298° West 450 518 36,000  Level Miami Center
Wed 05:37:52 PM 21.1853 -69.9000 299° West 450 518 36,000  Level Miami Center
Wed 05:42:01 PM 21.4400 -70.3872 299° West 449 517 36,000  Level Miami Center
Wed 05:43:03 PM 21.5006 -70.5028 299° West 448 516 36,000  Level Miami Center
Wed 05:44:05 PM 21.5603 -70.6189 299° West 447 514 36,000  Level Miami Center
Wed 05:46:09 PM 21.6931 -70.8728 299° West 448 516 36,000  Level Miami Center
Wed 05:47:00 PM 21.6952 -70.8805 299° West  Level FlightAware Approximate
Wed 05:48:13 PM 21.8131 -71.1067 299° West 448 516 36,000  Level Miami Center
Wed 05:49:15 PM 21.8728 -71.2231 299° West 448 516 36,000  Level Miami Center
Wed 05:50:18 PM 21.9322 -71.3392 299° West 448 516 36,000  Level Miami Center
Wed 05:51:20 PM 22.0033 -71.4786 299° West 448 516 36,000  Level Miami Center
Wed 05:52:22 PM 22.0625 -71.5961 299° West 448 516 36,000  Level Miami Center
Wed 05:53:24 PM 22.1225 -71.7122 299° West 447 514 36,000  Level Miami Center
Wed 05:54:26 PM 22.1803 -71.8283 298° West 445 512 36,000 -48 Level Miami Center
Wed 05:55:28 PM 22.2400 -71.9439 299° West 443 510 35,900  Descending Miami Center
Wed 05:56:30 PM 22.2992 -72.0611 299° West 443 510 36,000 32 Climbing Miami Center
Wed 05:58:34 PM 22.4300 -72.3197 299° West 445 512 36,000  Level Miami Center
Wed 05:59:36 PM 22.4886 -72.4381 298° West 445 512 36,000  Level Miami Center
Wed 06:00:38 PM 22.5469 -72.5550 298° West 445 512 36,000  Level Miami Center
Wed 06:04:47 PM 22.7936 -73.0469 298° West 443 510 36,000  Level Miami Center
Wed 06:05:49 PM 22.8478 -73.1583 298° West 443 510 36,000  Level Miami Center
Wed 06:06:51 PM 22.9047 -73.2742 298° West 441 507 36,000  Level Miami Center
Wed 06:07:53 PM 22.9733 -73.4125 298° West 438 504 36,000  Level Miami Center
Wed 06:08:55 PM 23.0297 -73.5286 298° West 438 504 36,000  Level Miami Center
Wed 06:10:59 PM 23.1444 -73.7608 309° West 437 503 36,000  Level Miami Center
Wed 06:12:01 PM 23.1992 -73.8775 297° West 436 502 36,000  Level Miami Center
Wed 06:13:03 PM 23.2578 -73.9914 299° West 435 501 36,000  Level Miami Center
Wed 06:14:05 PM 23.3247 -74.1311 298° West 435 501 36,000  Level Miami Center
Wed 06:15:07 PM 23.3833 -74.2478 299° West 438 504 36,000  Level Miami Center
Wed 06:17:12 PM 23.4953 -74.4803 298° West 436 502 36,000  Level Miami Center
Wed 06:21:20 PM 23.7300 -74.9692 298° West 434 499 36,000  Level Miami Center
Wed 06:22:22 PM 23.7853 -75.0836 298° West 430 495 36,000  Level Miami Center
Wed 06:23:24 PM 23.8394 -75.1986 297° West 430 495 36,000  Level Miami Center
Wed 06:25:28 PM 23.9500 -75.4333 297° West 438 504 36,000  Level Miami Center
Wed 06:26:00 PM 23.9571 -75.4617 298° West  Level FlightAware Approximate
Wed 06:26:30 PM 24.0164 -75.5750 297° West 438 504 36,000  Level Miami Center
Wed 06:28:34 PM 24.1278 -75.8136 297° West 441 507 36,000  Level Miami Center
Wed 06:29:35 PM 24.1836 -75.9311 298° West 441 507 36,000  Level Miami Center
Wed 06:30:37 PM 24.2372 -76.0497 296° West 440 506 36,000  Level Miami Center
Wed 06:31:39 PM 24.2942 -76.1689 298° West 440 506 36,000  Level Miami Center
Wed 06:32:41 PM 24.3589 -76.3114 297° West 439 505 36,000  Level Miami Center
Wed 06:33:43 PM 24.4133 -76.4300 297° West 438 504 36,000  Level Miami Center
Wed 06:34:45 PM 24.4686 -76.5489 297° West 433 498 36,000  Level Miami Center
Wed 06:35:47 PM 24.5233 -76.6661 297° West 433 498 36,000  Level Miami Center
Wed 06:36:49 PM 24.5833 -76.7942 297° West 430 495 36,000  Level Miami Center
Wed 06:37:51 PM 24.6369 -76.9125 297° West 430 495 36,000  Level Miami Center
Wed 06:38:53 PM 24.6914 -77.0317 297° West 432 497 36,000  Level Miami Center
Wed 06:40:56 PM 24.8033 -77.2792 297° West 431 496 36,000  Level Miami Center
Wed 06:41:58 PM 24.8572 -77.3986 296° West 431 496 36,000  Level Miami Center
Wed 06:43:00 PM 24.9086 -77.5197 295° West 432 497 36,000  Level Miami Center
Wed 06:44:02 PM 24.9664 -77.6406 298° West 438 504 36,000  Level Miami Center
Wed 06:45:04 PM 25.0258 -77.7697 297° West 428 493 36,000  Level Miami Center
Wed 06:46:06 PM 25.0786 -77.8872 296° West 427 491 36,000  Level Miami Center
Wed 06:47:08 PM 25.1314 -78.0047 296° West 426 490 36,000  Level Miami Center
Wed 06:48:10 PM 25.1869 -78.1331 296° West 422 486 36,000  Level Miami Center
Wed 06:50:13 PM 25.2925 -78.3672 297° West 425 489 36,000  Level Miami Center
Wed 06:51:15 PM 25.3456 -78.4839 297° West 425 489 36,000  Level Miami Center
Wed 06:52:17 PM 25.4011 -78.6131 295° West 425 489 36,000  Level Miami Center
Wed 06:53:19 PM 25.4539 -78.7297 297° West 425 489 36,000  Level Miami Center
Wed 06:56:25 PM 25.6100 -79.0936 295° West 424 488 36,000  Level Miami Center
Wed 06:57:27 PM 25.6636 -79.2089 297° West 424 488 36,000  Level Miami Center
Wed 06:58:28 PM 25.7128 -79.3261 295° West 423 487 36,000 -32 Level Miami Center
Wed 07:00:00 PM 25.8613 -79.4316 327° Northwest  Level Estimated
Wed 07:00:32 PM 25.8114 -79.5561 327° Northwest 415 478 35,900  Level Miami Center
Wed 07:01:34 PM 25.8614 -79.6692 296° West 412 474 35,000 -1,387 Descending Miami Center
Wed 07:03:38 PM 25.9681 -79.9186 296° West 409 471 31,600 -1,613 Descending Miami Center
Wed 07:04:40 PM 26.0244 -80.0303 299° West 419 482 30,000 -780 Descending Miami Center
Wed 07:05:41 PM 26.1006 -80.1333 309° West 434 499 30,000  Level Miami Center
Wed 07:06:43 PM 26.1956 -80.2208 320° Northwest 446 513 30,000 -726 Level Miami Center
Wed 07:07:45 PM 26.3278 -80.2961 333° Northwest 448 516 28,500 -1,597 Descending Miami Center
Wed 07:08:47 PM 26.4458 -80.3525 337° Northwest 458 527 26,700 -1,742 Descending Miami Center
Wed 07:09:49 PM 26.5753 -80.4181 336° Northwest 470 541 24,900 -1,597 Descending Miami Center
Wed 07:10:51 PM 26.6944 -80.4778 336° Northwest 472 543 23,400 -1,500 Descending Miami Center
Wed 07:11:53 PM 26.8081 -80.5342 336° Northwest 463 533 21,800 -1,500 Descending Miami Center
Wed 07:12:55 PM 26.9203 -80.5914 336° Northwest 444 511 20,300 -1,524 Descending Miami Center
Wed 07:14:58 PM 27.1536 -80.7094 336° Northwest 425 489 17,100 -802 Descending Miami Center
Wed 07:17:02 PM 27.3703 -80.8194 336° Northwest 398 458 17,000 -387 Descending Miami Center
Wed 07:18:04 PM 27.4636 -80.8681 335° Northwest 385 443 15,900 -1,839 Descending Miami Center
Wed 07:19:06 PM 27.5656 -80.9192 336° Northwest 377 434 13,200 -2,390 Descending Miami Center
Wed 07:20:07 PM 27.6603 -80.9678 336° Northwest 357 411 11,000 -1,415 Descending Miami Center
Wed 07:21:09 PM 27.7331 -81.0050 336° Northwest 292 336 10,300 -1,210 Descending Miami Center
Wed 07:22:11 PM 27.8047 -81.0422 335° Northwest 274 315 8,500 -1,113 Descending Miami Center
Wed 07:23:13 PM 27.8758 -81.0789 335° Northwest 273 314 8,000 -290 Descending Miami Center
Wed 07:24:15 PM 27.9367 -81.1094 336° Northwest 232 267 7,900 -49 Descending Miami Center
Wed 07:25:16 PM 27.9978 -81.1233 349° North 227 261 7,900 -439 Level Miami Center
Wed 07:26:18 PM 28.0611 -81.1200 North 229 264 7,000 -760 Descending Miami Center
Wed 07:27:46 PM 28.1500 -81.1500 343° North 235 270 6,000 -1,265 Descending Orlando TRACON
Wed 07:29:23 PM 28.2025 -81.2333 306° West 231 266 3,100 -1,170 Descending Miami Center
Wed 07:30:25 PM 28.2453 -81.2853 313° West 227 261 2,900 -726 Descending Miami Center
Wed 07:31:27 PM 28.2989 -81.3164 333° Northwest 221 254 1,600 -774 Descending Miami Center
Wed 07:32:29 PM 28.3489 -81.3214 355° North 174 200 1,300 -585 Descending Miami Center
Wed 07:33:30 PM 28.3931 -81.3208 North 140 161 400 -885 Descending Miami Center

Login

Don't have an account? Register now (free) for customized features, flight alerts, and more!